Here is the Quick Look data you requested

The Data originates at the National Weather Service, and is made available here by the UAlbany Department of Atmospheric and Environmental Sciences

Surface Observations

KAFN 220452Z AUTO 00000KT 10SM CLR 21/19 A3010 RMK AO2 SLP190 T02060189
 402830133=
KASH 220456Z AUTO 00000KT 10SM CLR 21/18 A3006 RMK AO2 SLP185 T02110183=
KBML 220452Z AUTO 00000KT 6SM BR CLR 14/12 A3007 RMK AO2 SLP179 T01440122
 402720083=
KCON 220451Z AUTO 00000KT 9SM CLR 17/16 A3006 RMK AO2 SLP176 T01720161
 403000122=
KCWN 220458Z AUTO 31004KT 10SM BKN190 19/07 A3034 RMK AO2 SLPNO T01890074 $=
KDAW 220451Z AUTO 00000KT 10SM CLR 20/16 A3004 RMK AO2 SLP168 T02000161
 402940139=
KHIE 220452Z AUTO 00000KT 9SM CLR 14/13 A3006 RMK AO2 SLP177 T01440128
 402670094=
KLCI 220456Z AUTO 00000KT 10SM CLR 19/16 A3006 RMK AO2 SLP190 T01890161=
KLEB 220453Z AUTO 00000KT 5SM BR CLR 17/16 A3006 RMK AO2 SLP168 T01670161
 402940128=
KMHT 220453Z 19004KT 10SM CLR 21/17 A3004 RMK AO2 SLP181 T02110172 402940156=
KMWN 220452Z 29031KT 1/16SM FG VV000 11/11 RMK=
KPSM 220458Z 00000KT 10SM CLR 21/17 A3003 RMK AO2A SLP171 T02060172 402980156
 CHINO RWY16 $=